Terminal Aerodrome Forecast
Issued by NWS

Home | Current Version | Previous Version | Text Only | Print | Product List | Glossary On
Versions: 1 2 3 4 5 6 7 8 9 10 11 12 13 14 15 16 17 18 19 20 21 22
000
FTUS42 KTAE 202320
TAFECP
TAF
KECP 202320Z 2100/2124 20010KT 6SM RA BKN009 OVC015
     FM210200 18005KT P6SM OVC005
     FM210600 18005KT 3SM -RA BR OVC003
     FM211000 18006KT 1SM -RA BR OVC001
     FM211400 19012G22KT 2SM -RA OVC015
     FM211700 20011G19KT 6SM TSRA OVC025CB=

USA.gov is the U.S. government's official web portal to all federal, state and local government web resources and services.